Time;durP1;ratioP1;P1;durP2;ratioP2;P2;SDS_P1;SDS_P2;PMS_P1;PMS_P2;Temp;Humidity;BMP_temperature;BMP_pressure;BME280_temperature;BME280_humidity;BME280_pressure;Samples;Min_cycle;Max_cycle;Signal;HPM_P1;HPM_P2
2022/04/21 00:00:32;;;;;;;2.45;1.60;;;;;;;8.99;49.86;100082.88;6211026;23;20000;-69
2022/04/21 00:02:58;;;;;;;2.08;1.88;;;;;;;8.96;50.16;100086.97;6184209;23;20051;-69
2022/04/21 00:05:24;;;;;;;3.85;2.55;;;;;;;8.93;50.28;100083.94;6210906;23;20076;-69
2022/04/21 00:07:49;;;;;;;3.88;2.40;;;;;;;8.91;50.38;100086.94;6184681;23;20040;-69
2022/04/21 00:10:16;;;;;;;4.18;2.63;;;;;;;8.89;50.72;100083.63;6211872;23;20009;-68
2022/04/21 00:12:41;;;;;;;5.78;2.42;;;;;;;8.87;51.25;100078.44;6182892;23;20083;-68
2022/04/21 00:15:07;;;;;;;3.88;2.10;;;;;;;8.83;51.15;100071.88;6159211;23;20087;-68
2022/04/21 00:17:33;;;;;;;4.22;2.22;;;;;;;8.82;50.71;100070.25;6185326;23;20015;-68
2022/04/21 00:19:59;;;;;;;4.72;2.22;;;;;;;8.77;51.20;100067.47;6211129;23;20009;-68
2022/04/21 00:25:09;;;;;;;4.32;2.17;;;;;;;8.77;51.11;100067.47;6213876;23;20045;-69
2022/04/21 00:27:38;;;;;;;7.38;2.80;;;;;;;8.79;50.67;100068.06;6215233;23;20201;-69
2022/04/21 00:30:06;;;;;;;4.07;2.22;;;;;;;8.78;50.86;100066.41;6186470;23;20490;-70
2022/04/21 00:32:36;;;;;;;4.25;1.90;;;;;;;8.81;50.87;100057.69;6214179;23;20035;-68
2022/04/21 00:35:05;;;;;;;2.65;1.63;;;;;;;8.79;51.00;100051.69;6215607;22;20017;-70
2022/04/21 00:37:31;;;;;;;4.47;2.63;;;;;;;8.75;51.55;100047.84;6187120;23;20004;-69
2022/04/21 00:40:03;;;;;;;4.13;3.08;;;;;;;8.79;51.84;100054.44;6163681;23;20019;-74
2022/04/21 00:42:31;;;;;;;5.60;2.70;;;;;;;8.76;51.67;100049.50;6191334;23;20012;-73
2022/04/21 00:44:56;;;;;;;5.40;2.55;;;;;;;8.79;51.31;100043.53;6163137;23;20024;-68
2022/04/21 00:47:22;;;;;;;4.40;2.67;;;;;;;8.82;51.81;100044.88;6194608;23;20005;-74
2022/04/21 00:49:48;;;;;;;5.28;3.10;;;;;;;8.89;51.03;100054.47;6171158;23;20132;-76
2022/04/21 00:52:17;;;;;;;5.53;2.78;;;;;;;8.90;51.34;100047.91;6222108;23;20009;-73
2022/04/21 00:54:43;;;;;;;6.97;2.88;;;;;;;8.90;51.91;100039.75;6171583;23;20068;-72
2022/04/21 00:57:28;;;;;;;;;;;;;;;;;;;;;
2022/04/21 00:59:54;;;;;;;6.07;3.40;;;;;;;8.93;51.77;100038.41;6221608;23;20036;-72
2022/04/21 01:05:04;;;;;;;6.70;3.80;;;;;;;8.85;52.69;100041.66;6219728;23;20075;-71
2022/04/21 01:07:29;;;;;;;7.47;4.13;;;;;;;8.80;52.87;100039.69;6190146;23;20083;-72
2022/04/21 01:09:55;;;;;;;9.90;3.50;;;;;;;8.74;53.00;100035.28;6169511;23;20013;-72
2022/04/21 01:12:23;;;;;;;6.95;3.35;;;;;;;8.73;52.28;100034.47;6172421;23;20566;-72
2022/04/21 01:14:49;;;;;;;5.65;3.22;;;;;;;8.73;52.40;100026.31;6195392;23;20814;-70
2022/04/21 01:17:14;;;;;;;5.47;3.13;;;;;;;8.74;52.59;100025.19;6193688;23;20019;-72
2022/04/21 01:19:40;;;;;;;5.03;3.58;;;;;;;8.73;53.17;100023.56;6192788;23;20009;-71
2022/04/21 01:22:05;;;;;;;5.22;3.15;;;;;;;8.81;53.33;100021.44;6223753;23;20298;-74
2022/04/21 01:24:31;;;;;;;9.60;3.97;;;;;;;8.77;52.85;100012.94;6193130;23;20024;-73
2022/04/21 01:27:00;;;;;;;6.65;4.03;;;;;;;8.77;53.30;100012.94;6191776;23;20046;-74
2022/04/21 01:29:27;;;;;;;5.95;3.55;;;;;;;8.84;52.97;100019.00;6191711;23;20345;-74
2022/04/21 01:31:54;;;;;;;8.63;4.22;;;;;;;8.90;53.63;100019.84;6192299;23;20012;-76
2022/04/21 01:34:20;;;;;;;7.13;4.28;;;;;;;8.90;53.70;100025.28;6229229;22;20072;-73
2022/04/21 01:42:18;;;;;;;5.13;3.30;;;;;;;8.70;53.30;99993.28;6187373;23;20016;-76
2022/04/21 01:44:43;;;;;;;4.20;3.05;;;;;;;8.70;52.78;100002.31;6199359;23;20016;-74
2022/04/21 01:47:09;;;;;;;9.10;3.80;;;;;;;8.64;54.01;99992.44;6198756;23;20015;-74
2022/04/21 01:49:34;;;;;;;6.13;3.63;;;;;;;8.63;54.07;99999.00;6225056;23;20008;-72
2022/04/21 01:52:00;;;;;;;5.38;3.55;;;;;;;8.62;54.51;99999.25;6193492;23;20017;-73
2022/04/21 01:54:25;;;;;;;4.45;2.80;;;;;;;8.54;53.46;99993.22;6197987;23;20067;-73
2022/04/21 01:56:51;;;;;;;4.80;3.03;;;;;;;8.54;54.59;99992.38;6197902;23;20421;-74
2022/04/21 01:59:16;;;;;;;4.38;2.70;;;;;;;8.51;54.63;99999.19;6197081;23;20424;-73
2022/04/21 02:01:42;;;;;;;5.30;2.90;;;;;;;8.47;54.22;99991.78;6196263;23;20483;-72
2022/04/21 02:04:07;;;;;;;6.13;3.05;;;;;;;8.49;55.06;99995.88;6170684;23;20051;-72
2022/04/21 02:06:32;;;;;;;5.18;2.75;;;;;;;8.46;54.76;99996.41;6170976;23;20043;-72
2022/04/21 02:08:58;;;;;;;6.03;3.08;;;;;;;8.46;54.36;99993.69;6194169;23;20092;-73
2022/04/21 02:11:24;;;;;;;3.60;2.47;;;;;;;8.46;54.97;99992.88;6197651;23;20063;-74
2022/04/21 02:13:50;;;;;;;8.05;2.97;;;;;;;8.39;54.69;99985.69;6194416;23;20012;-73
2022/04/21 02:16:15;;;;;;;4.95;3.13;;;;;;;8.38;54.88;99980.50;6173107;23;20008;-73
2022/04/21 02:18:41;;;;;;;7.28;3.92;;;;;;;8.39;55.37;99984.88;6148244;23;20024;-73
2022/04/21 02:21:06;;;;;;;4.47;3.03;;;;;;;8.31;54.63;99972.59;6220535;23;20527;-74
2022/04/21 02:23:31;;;;;;;5.55;3.35;;;;;;;8.30;54.59;99970.13;6200563;23;20012;-72
2022/04/21 02:25:57;;;;;;;4.22;2.97;;;;;;;8.33;55.51;99975.03;6201386;23;20012;-71
2022/04/21 02:28:23;;;;;;;6.53;3.58;;;;;;;8.34;55.46;99976.69;6227169;23;20012;-73
2022/04/21 02:30:48;;;;;;;7.82;4.05;;;;;;;8.33;55.34;99969.59;6171057;23;20071;-73
2022/04/21 02:33:14;;;;;;;7.22;3.90;;;;;;;8.34;55.56;99965.81;6223891;23;20034;-73
2022/04/21 02:35:39;;;;;;;7.25;3.58;;;;;;;8.35;55.01;99967.41;6197930;23;20028;-74
2022/04/21 02:38:05;;;;;;;6.38;3.63;;;;;;;8.36;55.89;99969.06;6168436;23;20051;-73
2022/04/21 02:40:30;;;;;;;6.53;3.38;;;;;;;8.37;54.94;99965.28;6193739;23;19997;-72
2022/04/21 02:42:56;;;;;;;4.97;3.55;;;;;;;8.32;55.16;99957.91;6194687;23;20015;-72
2022/04/21 02:45:22;;;;;;;5.10;3.45;;;;;;;8.37;56.00;99965.28;6163860;23;20009;-73
2022/04/21 02:47:48;;;;;;;8.30;3.85;;;;;;;8.35;55.59;99961.97;6195833;23;20553;-72
2022/04/21 02:50:16;;;;;;;6.78;3.08;;;;;;;8.32;54.91;99957.06;6195343;23;20031;-72
2022/04/21 02:52:42;;;;;;;6.25;3.53;;;;;;;8.31;55.25;99949.94;6191955;23;20012;-71
2022/04/21 02:57:53;;;;;;;3.92;2.58;;;;;;;8.30;55.08;99953.78;6194384;23;20035;-72
2022/04/21 03:00:19;;;;;;;4.95;3.08;;;;;;;8.27;55.83;99949.66;6187540;23;20438;-71
2022/04/21 03:02:45;;;;;;;6.85;3.75;;;;;;;8.27;56.27;99951.59;6216672;23;20027;-73
2022/04/21 03:05:11;;;;;;;6.55;4.15;;;;;;;8.28;55.83;99942.31;6219369;23;20000;-72
2022/04/21 03:07:38;;;;;;;4.50;3.25;;;;;;;8.31;55.87;99947.22;6191609;23;20017;-71
2022/04/21 03:10:04;;;;;;;7.47;3.60;;;;;;;8.29;55.90;99943.97;6220316;23;20011;-72
2022/04/21 03:12:30;;;;;;;7.15;3.55;;;;;;;8.32;56.09;99952.44;6219567;23;20008;-72
2022/04/21 03:14:58;;;;;;;6.85;3.40;;;;;;;8.27;56.37;99940.69;6196008;23;20019;-73
2022/04/21 03:17:24;;;;;;;6.35;4.00;;;;;;;8.25;56.61;99940.13;6171131;23;20063;-72
2022/04/21 03:19:50;;;;;;;14.00;3.95;;;;;;;8.27;55.88;99948.88;6193389;23;20009;-72
2022/04/21 03:25:05;;;;;;;6.13;3.25;;;;;;;8.25;56.42;99942.84;6198721;23;20111;-71
2022/04/21 03:27:32;;;;;;;3.75;2.83;;;;;;;8.29;56.24;99946.69;6214948;23;20000;-71
2022/04/21 03:29:58;;;;;;;7.25;3.70;;;;;;;8.27;56.90;99937.97;6190909;23;20011;-72
2022/04/21 03:32:25;;;;;;;5.00;3.50;;;;;;;8.32;56.14;99940.72;6216734;23;20000;-72
2022/04/21 03:34:50;;;;;;;5.10;3.15;;;;;;;8.32;56.61;99929.81;6217809;22;20103;-72
2022/04/21 03:37:16;;;;;;;3.97;2.85;;;;;;;8.38;57.02;99926.03;6201028;23;20015;-74
2022/04/21 03:39:42;;;;;;;4.40;2.95;;;;;;;8.38;56.88;99923.31;6221107;23;20035;-74
2022/04/21 03:42:23;;;;;;;10.98;3.90;;;;;;;8.38;56.56;99924.13;6194922;23;20386;-74
2022/04/21 03:44:49;;;;;;;4.88;3.13;;;;;;;8.36;56.52;99925.47;6194025;23;20012;-74
2022/04/21 03:47:15;;;;;;;8.07;3.05;;;;;;;8.36;56.92;99930.94;6171800;23;20008;-73
2022/04/21 03:49:41;;;;;;;6.25;2.83;;;;;;;8.37;57.48;99935.31;6191861;23;20020;-73
2022/04/21 03:52:06;;;;;;;6.75;3.47;;;;;;;8.32;57.99;99919.75;6219518;23;20001;-73
2022/04/21 03:54:32;;;;;;;10.35;3.70;;;;;;;8.24;58.22;99924.88;6222074;23;20016;-73
2022/04/21 03:56:57;;;;;;;6.50;3.33;;;;;;;8.20;58.75;99927.28;6218141;23;20009;-73
2022/04/21 03:59:25;;;;;;;6.03;3.92;;;;;;;8.06;58.66;99923.38;6215670;23;20091;-72
2022/04/21 04:01:51;;;;;;;6.55;3.72;;;;;;;7.95;58.63;99920.56;6194207;23;20009;-72
2022/04/21 04:04:17;;;;;;;5.80;3.25;;;;;;;7.86;58.98;99917.50;6169923;23;20071;-73
2022/04/21 04:12:11;;;;;;;6.57;3.40;;;;;;;7.46;60.48;99916.09;6197991;23;20023;-73
2022/04/21 04:14:38;;;;;;;5.85;3.42;;;;;;;7.39;60.38;99920.09;6221782;23;20000;-72
2022/04/21 04:17:08;;;;;;;6.93;3.78;;;;;;;7.29;61.35;99918.09;6216467;23;20414;-72
2022/04/21 04:19:34;;;;;;;6.85;3.47;;;;;;;7.25;60.84;99916.97;6193781;23;20012;-73
2022/04/21 04:22:00;;;;;;;6.47;3.60;;;;;;;7.22;62.09;99923.72;6216106;23;20032;-73
2022/04/21 04:24:26;;;;;;;9.02;4.18;;;;;;;7.22;62.05;99925.66;6194706;23;20020;-72
2022/04/21 04:26:52;;;;;;;10.18;4.75;;;;;;;7.18;62.54;99916.34;6172989;23;20013;-73
2022/04/21 04:29:22;;;;;;;6.60;4.10;;;;;;;7.18;62.77;99928.03;6200450;23;20028;-73
2022/04/21 04:31:50;;;;;;;8.68;4.22;;;;;;;7.13;63.03;99914.41;6173624;23;20005;-73
2022/04/21 04:34:15;;;;;;;11.07;4.82;;;;;;;7.16;63.58;99913.88;6181031;23;20013;-73
2022/04/21 04:36:41;;;;;;;6.25;4.28;;;;;;;7.17;63.27;99915.53;6176328;23;20449;-73
2022/04/21 04:39:07;;;;;;;9.88;4.45;;;;;;;7.15;63.12;99915.78;6196389;23;20608;-73
2022/04/21 04:44:17;;;;;;;9.70;5.10;;;;;;;7.18;63.94;99916.34;6197567;23;20043;-73
2022/04/21 04:46:43;;;;;;;6.85;4.03;;;;;;;7.16;63.44;99914.69;6222556;23;20009;-73
2022/04/21 04:49:09;;;;;;;6.50;4.25;;;;;;;7.11;64.41;99914.66;6219933;23;20012;-73
2022/04/21 04:51:39;;;;;;;7.00;4.20;;;;;;;7.13;63.89;99919.84;6170473;23;20008;-74
2022/04/21 04:54:10;;;;;;;15.70;5.90;;;;;;;7.03;64.69;99909.66;6222206;23;20012;-75
2022/04/21 04:56:40;;;;;;;9.40;5.03;;;;;;;7.06;65.43;99909.16;6222367;23;20004;-75
2022/04/21 04:59:06;;;;;;;10.02;4.93;;;;;;;7.06;65.23;99906.44;6220811;23;19996;-74
2022/04/21 05:01:42;;;;;;;14.70;5.45;;;;;;;7.09;66.11;99918.69;6198860;23;20036;-70
2022/04/21 05:04:20;;;;;;;10.65;5.78;;;;;;;7.09;66.00;99914.06;6193679;23;20391;-70
2022/04/21 05:06:51;;;;;;;12.63;5.60;;;;;;;7.18;66.54;99922.59;6219456;23;20067;-71
2022/04/21 05:09:34;;;;;;;14.82;6.00;;;;;;;7.20;66.18;99923.19;6193327;23;20000;-70
2022/04/21 05:12:00;;;;;;;11.18;5.38;;;;;;;7.20;66.84;99911.47;6218131;23;20023;-71
2022/04/21 05:14:25;;;;;;;8.20;4.88;;;;;;;7.22;66.26;99912.03;6167225;23;20009;-70
2022/04/21 05:16:51;;;;;;;12.60;5.00;;;;;;;7.20;66.25;99904.16;6168245;23;20039;-72
2022/04/21 05:19:19;;;;;;;12.38;5.30;;;;;;;7.29;67.23;99915.38;6194100;23;20005;-74
2022/04/21 05:21:47;;;;;;;10.60;4.88;;;;;;;7.31;66.48;99913.22;6220454;23;20000;-73
2022/04/21 05:24:13;;;;;;;15.18;5.28;;;;;;;7.34;66.75;99905.38;6168798;23;20327;-72
2022/04/21 05:26:40;;;;;;;7.80;5.03;;;;;;;7.40;66.99;99921.72;6218700;23;20008;-72
2022/04/21 05:31:54;;;;;;;10.80;6.13;;;;;;;7.54;67.03;99920.25;6200842;23;20020;-73
2022/04/21 05:34:20;;;;;;;11.98;6.60;;;;;;;7.60;66.07;99918.41;6193889;23;20020;-74
2022/04/21 05:36:46;;;;;;;9.88;5.82;;;;;;;7.60;66.95;99905.59;6222169;23;20020;-73
2022/04/21 05:39:11;;;;;;;8.52;4.95;;;;;;;7.82;66.00;99916.38;6222954;23;20032;-74
2022/04/21 05:41:37;;;;;;;16.73;6.72;;;;;;;7.94;65.92;99908.03;6172662;23;20009;-74
2022/04/21 05:44:04;;;;;;;14.88;5.68;;;;;;;8.09;66.14;99915.50;6197544;23;20026;-74
2022/04/21 05:46:29;;;;;;;14.23;5.90;;;;;;;8.19;65.37;99910.13;6222967;23;20036;-74
2022/04/21 05:48:55;;;;;;;10.98;5.85;;;;;;;8.38;65.93;99909.69;6223285;23;20009;-73
2022/04/21 05:51:21;;;;;;;10.32;5.25;;;;;;;8.59;65.52;99918.03;6196230;23;20024;-74
2022/04/21 05:53:48;;;;;;;9.93;5.68;;;;;;;8.71;65.56;99915.88;6197002;23;20080;-74
2022/04/21 05:56:14;;;;;;;11.63;5.03;;;;;;;8.85;64.75;99917.03;6195453;23;20422;-73
2022/04/21 05:58:39;;;;;;;14.07;5.80;;;;;;;9.01;64.89;99911.63;6196696;23;20035;-74
2022/04/21 06:01:10;;;;;;;15.60;5.70;;;;;;;9.17;64.71;99912.47;6171271;23;20079;-74
2022/04/21 06:03:39;;;;;;;8.27;4.93;;;;;;;9.36;64.18;99907.34;6222143;23;20076;-75
2022/04/21 06:06:06;;;;;;;10.85;6.10;;;;;;;9.50;63.51;99910.38;6194384;23;20004;-73
2022/04/21 06:08:31;;;;;;;9.20;5.50;;;;;;;9.60;63.71;99911.19;6222238;23;20027;-74
2022/04/21 06:10:57;;;;;;;12.45;5.13;;;;;;;9.81;63.28;99916.66;6196591;23;20013;-74
2022/04/21 06:13:27;;;;;;;13.95;6.18;;;;;;;9.99;63.11;99911.72;6196340;23;20056;-73
2022/04/21 06:15:54;;;;;;;11.23;6.22;;;;;;;10.07;63.10;99911.19;6195763;23;20047;-73
2022/04/21 06:18:20;;;;;;;7.80;4.72;;;;;;;10.22;62.49;99911.16;6194547;23;20004;-73
2022/04/21 06:20:46;;;;;;;9.02;5.05;;;;;;;10.35;62.17;99908.97;6222459;23;20455;-74
2022/04/21 06:23:12;;;;;;;10.30;4.78;;;;;;;10.55;61.66;99919.84;6168577;23;20012;-74
2022/04/21 06:25:41;;;;;;;7.00;4.70;;;;;;;10.64;61.43;99914.63;6171624;23;20008;-74
2022/04/21 06:28:07;;;;;;;8.98;4.80;;;;;;;10.76;61.73;99914.31;6194057;23;20043;-75
2022/04/21 06:30:34;;;;;;;10.55;5.00;;;;;;;10.84;61.27;99911.00;6147247;23;20012;-74
2022/04/21 06:33:10;;;;;;;;;;;;;;;;;;;;;
2022/04/21 06:35:36;;;;;;;13.90;6.20;;;;;;;10.91;60.73;99907.97;6224957;23;20044;-74
2022/04/21 06:38:02;;;;;;;10.50;4.55;;;;;;;10.96;60.08;99905.19;6170769;23;20015;-74
2022/04/21 06:40:27;;;;;;;10.20;5.35;;;;;;;11.05;60.14;99921.84;6172149;23;20005;-74
2022/04/21 06:49:27;;;;;;;10.10;5.43;;;;;;;10.83;60.57;99910.19;6221540;23;20036;-74
2022/04/21 06:51:53;;;;;;;9.00;4.65;;;;;;;10.78;61.07;99917.59;6172872;23;20017;-74
2022/04/21 06:54:20;;;;;;;18.77;6.53;;;;;;;10.67;61.13;99905.03;6222857;23;20039;-75
2022/04/21 06:56:48;;;;;;;10.65;5.00;;;;;;;10.78;61.65;99923.88;6169908;23;20099;-73
2022/04/21 06:59:15;;;;;;;12.25;6.28;;;;;;;10.72;61.88;99922.25;6223522;23;20083;-75
2022/04/21 07:01:41;;;;;;;14.20;6.53;;;;;;;10.70;62.01;99931.81;6198081;23;20052;-75
2022/04/21 07:06:51;;;;;;;14.57;6.60;;;;;;;10.45;62.89;99925.34;6195823;23;20352;-76
2022/04/21 07:10:41;;;;;;;15.00;7.18;;;;;;;10.36;63.36;99921.53;6195177;23;20008;-72
2022/04/21 07:15:47;;;;;;;12.90;6.75;;;;;;;10.39;63.72;99921.00;6242194;23;20028;-71
2022/04/21 07:18:13;;;;;;;12.93;6.20;;;;;;;10.49;63.50;99931.91;6231764;23;20418;-75
2022/04/21 07:20:39;;;;;;;16.92;8.32;;;;;;;10.52;63.41;99922.31;6204150;23;20348;-73
2022/04/21 07:23:04;;;;;;;21.17;7.57;;;;;;;10.61;64.26;99923.38;6225645;23;20008;-75
2022/04/21 07:25:30;;;;;;;14.70;7.43;;;;;;;10.77;63.60;99929.63;6220814;23;20004;-74
2022/04/21 07:27:55;;;;;;;15.45;8.27;;;;;;;10.89;63.63;99921.91;6215430;23;20031;-74
2022/04/21 07:30:21;;;;;;;11.68;6.57;;;;;;;11.01;63.05;99927.06;6214533;23;20012;-73
2022/04/21 07:32:47;;;;;;;10.68;6.13;;;;;;;11.15;62.85;99930.78;6215890;23;20519;-73
2022/04/21 07:35:13;;;;;;;11.50;6.78;;;;;;;11.21;62.64;99926.13;6189597;23;20008;-72
2022/04/21 07:37:39;;;;;;;13.35;6.45;;;;;;;11.27;62.89;99930.50;6214276;23;20034;-74
2022/04/21 07:40:05;;;;;;;10.43;5.22;;;;;;;11.42;62.35;99929.56;6240887;23;20008;-74
2022/04/21 07:42:31;;;;;;;16.95;7.70;;;;;;;11.56;61.73;99926.19;6243896;23;20000;-74
2022/04/21 07:45:01;;;;;;;11.35;6.57;;;;;;;11.67;61.95;99928.56;6199976;23;20018;-75
2022/04/21 07:50:35;;;;;;;14.35;7.13;;;;;;;11.98;60.77;99906.41;6277938;22;20070;-73
2022/04/21 07:53:18;;;;;;;20.23;7.75;;;;;;;12.37;60.47;99921.94;6286420;22;20008;-72
2022/04/21 07:55:50;;;;;;;29.33;10.32;;;;;;;12.73;59.54;99943.50;6290326;22;20061;-72
2022/04/21 07:58:15;;;;;;;25.00;8.02;;;;;;;12.96;58.46;99943.75;6284937;22;20007;-73
2022/04/21 08:00:41;;;;;;;17.15;7.63;;;;;;;13.19;58.43;99944.03;6287819;22;20007;-73
2022/04/21 08:03:07;;;;;;;16.70;7.70;;;;;;;13.39;57.82;99943.78;6316128;22;20029;-73
2022/04/21 08:05:33;;;;;;;11.43;6.80;;;;;;;13.55;57.38;99941.63;6316817;22;20018;-76
2022/04/21 08:07:59;;;;;;;12.13;6.65;;;;;;;13.79;56.42;99946.19;6316302;22;19999;-72
2022/04/21 08:11:18;;;;;;;18.20;8.65;;;;;;;13.88;56.56;99946.34;6284712;22;20011;-72
2022/04/21 08:13:49;;;;;;;19.33;8.32;;;;;;;13.98;55.26;99932.41;6288628;22;20322;-75
2022/04/21 08:16:32;;;;;;;16.63;8.82;;;;;;;14.12;55.40;99947.03;6289705;22;20010;-75
2022/04/21 08:19:04;;;;;;;17.88;8.23;;;;;;;14.29;55.27;99954.72;6261747;22;20721;-73
2022/04/21 08:21:29;;;;;;;13.02;7.07;;;;;;;14.42;54.98;99939.34;6285963;22;20019;-74
2022/04/21 08:32:33;;;;;;;13.38;7.20;;;;;;;14.74;53.93;99931.34;6314649;22;20121;-72
2022/04/21 08:34:54;;;;;;;16.08;8.30;;;;;;;15.45;51.57;99934.50;6284114;22;20041;-72
2022/04/21 08:37:21;;;;;;;18.25;8.18;;;;;;;15.83;51.10;99928.66;6253118;22;20018;-71
2022/04/21 08:39:47;;;;;;;13.73;7.75;;;;;;;16.37;49.78;99938.91;6279295;22;20060;-72
2022/04/21 08:42:14;;;;;;;8.77;5.57;;;;;;;17.03;48.76;99952.00;6308700;22;20060;-72
2022/04/21 08:44:43;;;;;;;17.58;7.90;;;;;;;17.33;47.15;99955.00;6280655;22;20610;-73
2022/04/21 08:47:17;;;;;;;12.38;6.63;;;;;;;17.49;46.79;99947.84;6305525;22;20054;-72
2022/04/21 08:49:50;;;;;;;12.27;6.97;;;;;;;17.81;45.96;99954.03;6303002;22;20057;-72
2022/04/21 08:52:27;;;;;;;;;;;;;;;;;;;;;
2022/04/21 08:54:55;;;;;;;12.07;5.80;;;;;;;19.01;43.31;99947.72;6308773;22;20118;-72
2022/04/21 08:57:31;;;;;;;13.15;7.55;;;;;;;19.32;41.79;99954.84;6311767;22;20063;-72
2022/04/21 08:59:59;;;;;;;14.68;7.82;;;;;;;19.42;41.38;99958.38;6307404;22;20440;-73
2022/04/21 09:02:42;;;;;;;11.45;6.55;;;;;;;19.46;42.14;99957.34;6283512;22;20015;-73
2022/04/21 09:05:29;;;;;;;15.13;7.65;;;;;;;19.75;41.60;99952.09;6309689;22;20003;-72
2022/04/21 09:07:54;;;;;;;13.75;7.00;;;;;;;20.08;40.20;99951.31;6308665;22;20022;-72
2022/04/21 09:10:20;;;;;;;13.27;6.93;;;;;;;21.14;39.23;99960.84;6256236;22;20345;-72
2022/04/21 09:12:56;;;;;;;16.48;6.93;;;;;;;22.03;37.26;99949.97;6310039;22;20011;-72
2022/04/21 09:15:30;;;;;;;12.55;6.47;;;;;;;21.79;37.09;99938.59;6255446;22;20011;-73
2022/04/21 09:18:00;;;;;;;14.38;7.63;;;;;;;21.37;37.21;99938.91;6282198;22;20007;-72
2022/04/21 09:20:30;;;;;;;14.20;8.38;;;;;;;20.57;37.90;99934.75;6282782;22;20052;-73
2022/04/21 09:23:01;;;;;;;14.10;7.72;;;;;;;20.37;38.54;99942.84;6311211;22;19995;-72
2022/04/21 09:25:28;;;;;;;14.75;7.57;;;;;;;21.25;37.76;99947.31;6310467;22;20002;-74
2022/04/21 09:27:55;;;;;;;7.82;5.40;;;;;;;23.39;35.81;99960.97;6309827;22;20646;-72
2022/04/21 09:30:25;;;;;;;12.60;7.60;;;;;;;24.47;32.64;99953.97;6287328;22;20411;-72
2022/04/21 09:33:11;;;;;;;10.95;5.75;;;;;;;26.16;30.99;99969.69;6281853;22;20144;-72
2022/04/21 09:35:44;;;;;;;14.18;8.70;;;;;;;26.85;29.02;99962.75;6282275;22;20007;-71
2022/04/21 09:38:18;;;;;;;16.30;7.37;;;;;;;27.38;27.97;99981.19;6282044;22;20063;-71
2022/04/21 09:40:45;;;;;;;9.68;5.53;;;;;;;28.65;26.79;99961.59;6281949;22;20003;-72
2022/04/21 09:43:10;;;;;;;10.68;5.75;;;;;;;30.83;24.77;99968.88;6280490;22;20062;-73
2022/04/21 09:48:29;;;;;;;11.52;6.60;;;;;;;35.41;18.63;99983.56;6284909;22;20017;-73
2022/04/21 09:51:16;;;;;;;19.95;6.68;;;;;;;35.47;18.57;99944.81;6282279;22;20026;-73
2022/04/21 09:53:51;;;;;;;11.73;5.13;;;;;;;35.90;18.70;99974.09;6281141;22;20487;-73
2022/04/21 09:56:16;;;;;;;8.27;4.90;;;;;;;35.20;18.18;99963.00;6310002;22;20003;-73
2022/04/21 09:58:45;;;;;;;6.93;4.93;;;;;;;34.80;18.69;99960.41;6281664;22;20094;-71
2022/04/21 10:01:13;;;;;;;10.15;5.88;;;;;;;34.06;19.00;99962.47;6282649;22;20438;-73
2022/04/21 10:03:44;;;;;;;10.60;6.63;;;;;;;32.35;19.82;99948.19;6309381;22;20007;-72
2022/04/21 10:06:10;;;;;;;17.40;7.32;;;;;;;30.52;21.67;99948.16;6283611;22;20034;-73
2022/04/21 10:08:46;;;;;;;9.13;5.70;;;;;;;29.80;22.94;99959.81;6310673;22;20010;-71
2022/04/21 10:11:12;;;;;;;11.35;7.28;;;;;;;30.31;22.55;99949.88;6311039;22;19992;-71
2022/04/21 10:13:40;;;;;;;8.13;5.93;;;;;;;30.70;22.09;99948.81;6254867;22;20014;-71
2022/04/21 10:16:16;;;;;;;12.65;6.65;;;;;;;30.32;22.66;99936.59;6312248;22;20007;-72
2022/04/21 10:18:42;;;;;;;10.90;5.45;;;;;;;30.66;22.33;99936.75;6281933;22;20090;-72
2022/04/21 10:21:09;;;;;;;12.80;7.80;;;;;;;32.69;19.91;99935.97;6280716;22;20011;-70
2022/04/21 10:23:46;;;;;;;7.40;4.32;;;;;;;34.22;19.15;99936.19;6282175;22;20040;-71
2022/04/21 10:26:35;;;;;;;11.95;6.55;;;;;;;34.20;18.74;99950.03;6309522;22;20039;-71
2022/04/21 10:29:21;;;;;;;6.90;5.68;;;;;;;33.09;19.46;99941.75;6309403;22;20003;-72
2022/04/21 10:32:01;;;;;;;16.23;6.22;;;;;;;33.14;19.13;99935.56;6309485;22;20037;-71
2022/04/21 10:34:29;;;;;;;15.35;7.10;;;;;;;33.01;19.12;99945.94;6308850;22;20007;-72
2022/04/21 10:37:06;;;;;;;9.85;6.10;;;;;;;32.27;19.39;99926.91;6311340;22;20003;-72
2022/04/21 10:39:37;;;;;;;8.90;4.95;;;;;;;31.58;20.27;99929.84;6282266;22;20029;-72
2022/04/21 10:42:19;;;;;;;8.68;6.85;;;;;;;31.56;20.49;99929.44;6309914;22;19999;-73
2022/04/21 10:44:53;;;;;;;12.55;7.85;;;;;;;31.35;20.05;99928.44;6283990;22;20019;-73
2022/04/21 10:47:48;;;;;;;;;;;;;;;;;;;;;
2022/04/21 10:50:20;;;;;;;18.35;5.75;;;;;;;31.51;21.02;99927.84;6309905;22;20086;-71
2022/04/21 10:58:47;;;;;;;;;;;;;;;;;;;;;
2022/04/21 11:01:42;;;;;;;7.72;5.90;;;;;;;34.78;18.10;99920.28;6307051;22;20050;-71
2022/04/21 11:04:13;;;;;;;9.43;6.85;;;;;;;33.18;19.03;99912.84;6308236;22;20037;-72
2022/04/21 11:06:43;;;;;;;17.95;7.78;;;;;;;33.33;18.72;99904.88;6280371;22;19999;-72
2022/04/21 11:09:37;;;;;;;8.20;4.88;;;;;;;34.21;18.45;99911.09;6305562;22;20074;-72
2022/04/21 11:12:05;;;;;;;11.10;7.20;;;;;;;35.94;15.86;99907.31;6310483;22;20052;-73
2022/04/21 11:14:42;;;;;;;10.30;5.10;;;;;;;37.96;14.77;99908.84;6308849;22;20086;-73
2022/04/21 11:17:11;;;;;;;10.60;6.15;;;;;;;40.31;12.64;99896.50;6271409;22;20000;-73
2022/04/21 11:19:53;;;;;;;8.55;5.32;;;;;;;41.28;12.02;99896.44;6308130;22;19999;-73
2022/04/21 11:22:41;;;;;;;13.65;7.47;;;;;;;41.15;11.51;99900.41;6308213;22;20557;-72
2022/04/21 11:25:28;;;;;;;11.48;6.72;;;;;;;41.05;11.99;99892.34;6279603;22;20429;-73
2022/04/21 11:27:56;;;;;;;10.38;6.53;;;;;;;40.82;11.80;99886.94;6284172;22;20014;-70
2022/04/21 11:30:25;;;;;;;7.97;5.70;;;;;;;39.31;12.82;99882.78;6306387;22;20007;-73
2022/04/21 11:32:52;;;;;;;7.25;4.20;;;;;;;37.71;14.31;99867.81;6311883;22;19999;-73
2022/04/21 11:35:21;;;;;;;8.63;5.13;;;;;;;38.18;14.26;99859.47;6283731;22;20014;-74
2022/04/21 11:37:54;;;;;;;13.63;5.47;;;;;;;40.83;12.55;99891.41;6286454;22;20059;-75
2022/04/21 11:40:37;;;;;;;5.20;4.03;;;;;;;42.49;10.82;99870.78;6313757;22;20003;-74
2022/04/21 11:43:05;;;;;;;4.97;4.05;;;;;;;42.26;10.38;99863.16;6288067;22;20049;-74
2022/04/21 11:45:38;;;;;;;5.15;4.15;;;;;;;43.12;9.92;99860.84;6317601;22;20028;-72
2022/04/21 11:48:14;;;;;;;7.55;4.60;;;;;;;44.33;9.41;99870.75;6284071;22;20441;-73
2022/04/21 11:50:45;;;;;;;8.07;4.43;;;;;;;44.78;9.19;99875.97;6312768;22;20043;-73
2022/04/21 11:53:18;;;;;;;6.68;4.22;;;;;;;46.06;8.46;99875.06;6312205;22;20013;-71
2022/04/21 11:55:45;;;;;;;8.68;4.30;;;;;;;47.81;7.68;99865.50;6309348;22;20014;-73
2022/04/21 11:58:10;;;;;;;6.65;4.38;;;;;;;48.05;7.25;99873.41;6283056;22;20010;-72
2022/04/21 12:09:59;;;;;;;3.93;3.40;;;;;;;45.54;7.62;99842.56;6215311;23;20039;-72
2022/04/21 12:12:45;;;;;;;6.03;3.40;;;;;;;46.12;7.89;99861.41;6212886;23;20245;-72
2022/04/21 12:15:29;;;;;;;7.47;4.30;;;;;;;47.72;6.39;99857.97;6216050;23;20004;-73
2022/04/21 12:18:00;;;;;;;5.65;4.45;;;;;;;47.61;6.71;99846.44;6218373;23;20003;-72
2022/04/21 12:21:11;;;;;;;7.95;4.30;;;;;;;48.23;6.69;99853.75;6239820;23;20043;-71
2022/04/21 12:27:34;;;;;;;4.78;3.65;;;;;;;49.18;5.78;99847.22;6243287;23;20014;-73
2022/04/21 12:30:13;;;;;;;7.88;3.83;;;;;;;48.63;5.81;99839.56;6234280;23;20000;-73
2022/04/21 12:33:44;;;;;;;5.32;3.38;;;;;;;46.07;6.81;99841.97;6219763;23;20035;-73
2022/04/21 12:43:32;;;;;;;3.45;3.10;;;;;;;39.69;11.12;99795.66;6122315;23;20074;-73
2022/04/21 12:46:03;;;;;;;3.40;2.55;;;;;;;43.72;9.11;99811.41;6158691;23;20047;-73
2022/04/21 12:48:33;;;;;;;3.40;1.95;;;;;;;45.94;8.10;99811.56;6215118;23;20008;-72
2022/04/21 12:50:58;;;;;;;5.10;3.28;;;;;;;45.95;7.80;99815.22;6244438;23;19999;-72
2022/04/21 12:53:56;;;;;;;5.80;3.47;;;;;;;46.21;7.87;99831.47;6192799;23;20087;-71
2022/04/21 12:56:38;;;;;;;7.50;3.00;;;;;;;47.67;7.27;99826.91;6214263;23;20032;-70
2022/04/21 12:59:03;;;;;;;5.13;1.80;;;;;;;49.17;6.69;99829.03;6240083;23;20004;-70
2022/04/21 13:01:30;;;;;;;4.18;2.60;;;;;;;50.59;5.90;99835.16;6209221;23;20745;-71
2022/04/21 13:03:59;;;;;;;7.25;2.97;;;;;;;51.38;5.30;99827.53;6211253;22;20153;-71
2022/04/21 13:10:07;;;;;;;4.78;3.45;;;;;;;47.89;5.96;99813.56;6118319;23;20716;-73
2022/04/21 13:12:33;;;;;;;2.85;2.50;;;;;;;48.09;6.67;99814.38;6120663;23;20037;-73
2022/04/21 13:15:00;;;;;;;3.88;2.63;;;;;;;49.52;5.75;99823.47;6155647;23;20023;-73